sensor_id;sensor_type;location;lat;lon;timestamp;temperature;humidity
72762;SHT30;60886;55.034;73.150;2023-02-19T00:00:16;-16.03;74.95
72762;SHT30;60886;55.034;73.150;2023-02-19T00:03:18;-16.05;75.00
72762;SHT30;60886;55.034;73.150;2023-02-19T00:06:22;-15.98;75.32
72762;SHT30;60886;55.034;73.150;2023-02-19T00:09:33;-16.03;74.66
72762;SHT30;60886;55.034;73.150;2023-02-19T00:12:35;-16.01;74.97
72762;SHT30;60886;55.034;73.150;2023-02-19T00:15:46;-16.15;74.09
72762;SHT30;60886;55.034;73.150;2023-02-19T00:18:48;-16.17;74.14
72762;SHT30;60886;55.034;73.150;2023-02-19T00:21:52;-16.09;75.04
72762;SHT30;60886;55.034;73.150;2023-02-19T00:24:53;-16.15;74.50
72762;SHT30;60886;55.034;73.150;2023-02-19T00:27:56;-16.16;74.97
72762;SHT30;60886;55.034;73.150;2023-02-19T00:34:17;-16.30;74.59
72762;SHT30;60886;55.034;73.150;2023-02-19T00:37:27;-16.30;74.88
72762;SHT30;60886;55.034;73.150;2023-02-19T00:40:39;-16.30;74.97
72762;SHT30;60886;55.034;73.150;2023-02-19T00:43:40;-16.33;73.99
72762;SHT30;60886;55.034;73.150;2023-02-19T00:46:45;-16.34;74.41
72762;SHT30;60886;55.034;73.150;2023-02-19T00:49:48;-16.44;74.23
72762;SHT30;60886;55.034;73.150;2023-02-19T00:52:49;-16.56;74.61
72762;SHT30;60886;55.034;73.150;2023-02-19T00:55:53;-16.57;75.19
72762;SHT30;60886;55.034;73.150;2023-02-19T00:58:56;-16.54;75.25
72762;SHT30;60886;55.034;73.150;2023-02-19T01:01:58;-16.53;74.61
72762;SHT30;60886;55.034;73.150;2023-02-19T01:05:00;-16.57;74.30
72762;SHT30;60886;55.034;73.150;2023-02-19T01:08:10;-16.54;73.78
72762;SHT30;60886;55.034;73.150;2023-02-19T01:11:24;-16.53;73.93
72762;SHT30;60886;55.034;73.150;2023-02-19T01:14:26;-16.63;72.97
72762;SHT30;60886;55.034;73.150;2023-02-19T01:17:29;-16.73;72.34
72762;SHT30;60886;55.034;73.150;2023-02-19T01:20:36;-16.77;72.86
72762;SHT30;60886;55.034;73.150;2023-02-19T01:23:43;-16.85;71.82
72762;SHT30;60886;55.034;73.150;2023-02-19T01:26:49;-16.87;72.45
72762;SHT30;60886;55.034;73.150;2023-02-19T01:29:51;-16.87;73.12
72762;SHT30;60886;55.034;73.150;2023-02-19T01:32:53;-16.85;73.78
72762;SHT30;60886;55.034;73.150;2023-02-19T01:35:54;-16.92;72.45
72762;SHT30;60886;55.034;73.150;2023-02-19T01:39:02;-16.94;72.82
72762;SHT30;60886;55.034;73.150;2023-02-19T01:42:13;-16.95;72.90
72762;SHT30;60886;55.034;73.150;2023-02-19T01:45:32;-17.04;73.10
72762;SHT30;60886;55.034;73.150;2023-02-19T01:48:44;-17.11;72.30
72762;SHT30;60886;55.034;73.150;2023-02-19T01:51:51;-17.05;73.23
72762;SHT30;60886;55.034;73.150;2023-02-19T01:54:55;-17.05;73.90
72762;SHT30;60886;55.034;73.150;2023-02-19T01:58:02;-17.07;74.15
72762;SHT30;60886;55.034;73.150;2023-02-19T02:01:05;-17.05;74.04
72762;SHT30;60886;55.034;73.150;2023-02-19T02:04:09;-17.10;73.03
72762;SHT30;60886;55.034;73.150;2023-02-19T02:07:11;-17.15;73.39
72762;SHT30;60886;55.034;73.150;2023-02-19T02:10:35;-17.19;73.69
72762;SHT30;60886;55.034;73.150;2023-02-19T02:13:38;-17.18;74.39
72762;SHT30;60886;55.034;73.150;2023-02-19T02:17:30;-17.21;73.35
72762;SHT30;60886;55.034;73.150;2023-02-19T02:28:19;-17.23;73.55
72762;SHT30;60886;55.034;73.150;2023-02-19T02:31:52;-17.25;73.12
72762;SHT30;60886;55.034;73.150;2023-02-19T02:35:04;-17.25;72.92
72762;SHT30;60886;55.034;73.150;2023-02-19T02:38:10;-17.25;72.51
72762;SHT30;60886;55.034;73.150;2023-02-19T02:41:14;-17.28;72.53
72762;SHT30;60886;55.034;73.150;2023-02-19T02:44:33;-17.31;72.59
72762;SHT30;60886;55.034;73.150;2023-02-19T02:47:52;-17.33;72.59
72762;SHT30;60886;55.034;73.150;2023-02-19T02:51:11;-17.40;72.51
72762;SHT30;60886;55.034;73.150;2023-02-19T02:54:32;-17.46;72.18
72762;SHT30;60886;55.034;73.150;2023-02-19T02:57:57;-17.43;72.73
72762;SHT30;60886;55.034;73.150;2023-02-19T03:01:12;-17.39;72.53
72762;SHT30;60886;55.034;73.150;2023-02-19T03:04:51;-17.33;72.74
72762;SHT30;60886;55.034;73.150;2023-02-19T03:08:17;-17.35;72.51
72762;SHT30;60886;55.034;73.150;2023-02-19T03:11:23;-17.19;72.68
72762;SHT30;60886;55.034;73.150;2023-02-19T03:14:52;-17.25;71.85
72762;SHT30;60886;55.034;73.150;2023-02-19T03:18:34;-17.19;72.32
72762;SHT30;60886;55.034;73.150;2023-02-19T03:22:10;-17.08;72.49
72762;SHT30;60886;55.034;73.150;2023-02-19T03:25:25;-16.98;72.68
72762;SHT30;60886;55.034;73.150;2023-02-19T03:28:57;-16.88;72.41
72762;SHT30;60886;55.034;73.150;2023-02-19T03:32:34;-16.74;72.39
72762;SHT30;60886;55.034;73.150;2023-02-19T03:35:42;-16.64;72.43
72762;SHT30;60886;55.034;73.150;2023-02-19T03:38:57;-16.48;72.29
72762;SHT30;60886;55.034;73.150;2023-02-19T03:42:08;-16.41;71.87
72762;SHT30;60886;55.034;73.150;2023-02-19T03:45:52;-16.34;71.94
72762;SHT30;60886;55.034;73.150;2023-02-19T03:49:02;-16.36;70.27
72762;SHT30;60886;55.034;73.150;2023-02-19T03:52:23;-16.34;70.05
72762;SHT30;60886;55.034;73.150;2023-02-19T03:55:35;-16.17;71.57
72762;SHT30;60886;55.034;73.150;2023-02-19T03:58:54;-16.06;71.33
72762;SHT30;60886;55.034;73.150;2023-02-19T04:02:08;-15.93;71.17
72762;SHT30;60886;55.034;73.150;2023-02-19T04:05:28;-15.82;70.95
72762;SHT30;60886;55.034;73.150;2023-02-19T04:08:34;-15.70;70.72
72762;SHT30;60886;55.034;73.150;2023-02-19T04:11:39;-15.53;70.40
72762;SHT30;60886;55.034;73.150;2023-02-19T04:15:02;-15.37;70.23
72762;SHT30;60886;55.034;73.150;2023-02-19T04:18:17;-15.24;69.77
72762;SHT30;60886;55.034;73.150;2023-02-19T04:21:22;-15.22;69.50
72762;SHT30;60886;55.034;73.150;2023-02-19T04:24:31;-15.06;69.42
72762;SHT30;60886;55.034;73.150;2023-02-19T04:27:39;-14.95;69.19
72762;SHT30;60886;55.034;73.150;2023-02-19T04:30:41;-14.86;69.23
72762;SHT30;60886;55.034;73.150;2023-02-19T04:33:44;-14.72;68.71
72762;SHT30;60886;55.034;73.150;2023-02-19T04:36:45;-14.60;68.72
72762;SHT30;60886;55.034;73.150;2023-02-19T04:39:47;-14.37;68.29
72762;SHT30;60886;55.034;73.150;2023-02-19T04:42:48;-14.31;67.77
72762;SHT30;60886;55.034;73.150;2023-02-19T04:45:49;-14.40;67.10
72762;SHT30;60886;55.034;73.150;2023-02-19T04:48:57;-14.52;67.18
72762;SHT30;60886;55.034;73.150;2023-02-19T04:52:00;-14.54;67.51
72762;SHT30;60886;55.034;73.150;2023-02-19T04:55:11;-14.42;67.91
72762;SHT30;60886;55.034;73.150;2023-02-19T04:58:13;-14.41;67.56
72762;SHT30;60886;55.034;73.150;2023-02-19T05:01:15;-14.36;67.64
72762;SHT30;60886;55.034;73.150;2023-02-19T05:04:17;-14.44;67.35
72762;SHT30;60886;55.034;73.150;2023-02-19T05:07:27;-14.38;68.04
72762;SHT30;60886;55.034;73.150;2023-02-19T05:10:28;-14.38;67.90
72762;SHT30;60886;55.034;73.150;2023-02-19T05:13:31;-14.36;67.95
72762;SHT30;60886;55.034;73.150;2023-02-19T05:16:32;-14.27;68.13
72762;SHT30;60886;55.034;73.150;2023-02-19T05:19:43;-14.23;68.26
72762;SHT30;60886;55.034;73.150;2023-02-19T05:22:45;-14.10;68.35
72762;SHT30;60886;55.034;73.150;2023-02-19T05:25:53;-14.09;68.22
72762;SHT30;60886;55.034;73.150;2023-02-19T05:28:55;-14.00;68.31
72762;SHT30;60886;55.034;73.150;2023-02-19T05:31:57;-14.05;67.97
72762;SHT30;60886;55.034;73.150;2023-02-19T05:35:03;-13.91;68.51
72762;SHT30;60886;55.034;73.150;2023-02-19T05:38:05;-13.77;68.44
72762;SHT30;60886;55.034;73.150;2023-02-19T05:41:13;-13.77;67.64
72762;SHT30;60886;55.034;73.150;2023-02-19T05:44:20;-13.79;68.08
72762;SHT30;60886;55.034;73.150;2023-02-19T05:47:27;-13.70;67.85
72762;SHT30;60886;55.034;73.150;2023-02-19T05:50:29;-13.85;67.28
72762;SHT30;60886;55.034;73.150;2023-02-19T05:53:33;-13.72;68.09
72762;SHT30;60886;55.034;73.150;2023-02-19T05:56:39;-13.63;67.71
72762;SHT30;60886;55.034;73.150;2023-02-19T05:59:41;-13.67;67.77
72762;SHT30;60886;55.034;73.150;2023-02-19T06:02:44;-13.59;67.67
72762;SHT30;60886;55.034;73.150;2023-02-19T06:05:57;-13.55;68.06
72762;SHT30;60886;55.034;73.150;2023-02-19T06:08:58;-13.44;67.84
72762;SHT30;60886;55.034;73.150;2023-02-19T06:12:01;-13.38;68.22
72762;SHT30;60886;55.034;73.150;2023-02-19T06:15:04;-13.14;67.96
72762;SHT30;60886;55.034;73.150;2023-02-19T06:18:14;-13.00;67.48
72762;SHT30;60886;55.034;73.150;2023-02-19T06:21:25;-13.03;67.29
72762;SHT30;60886;55.034;73.150;2023-02-19T06:24:27;-12.97;67.57
72762;SHT30;60886;55.034;73.150;2023-02-19T06:27:28;-12.81;67.34
72762;SHT30;60886;55.034;73.150;2023-02-19T06:30:30;-12.55;67.25
72762;SHT30;60886;55.034;73.150;2023-02-19T06:33:37;-12.41;66.77
72762;SHT30;60886;55.034;73.150;2023-02-19T06:36:43;-12.34;66.69
72762;SHT30;60886;55.034;73.150;2023-02-19T06:39:45;-12.39;67.04
72762;SHT30;60886;55.034;73.150;2023-02-19T06:42:57;-12.25;67.05
72762;SHT30;60886;55.034;73.150;2023-02-19T06:46:01;-12.20;66.85
72762;SHT30;60886;55.034;73.150;2023-02-19T06:49:13;-12.15;66.35
72762;SHT30;60886;55.034;73.150;2023-02-19T06:52:16;-12.25;66.11
72762;SHT30;60886;55.034;73.150;2023-02-19T06:55:17;-12.14;66.08
72762;SHT30;60886;55.034;73.150;2023-02-19T06:58:29;-12.11;65.80
72762;SHT30;60886;55.034;73.150;2023-02-19T07:01:36;-12.05;65.37
72762;SHT30;60886;55.034;73.150;2023-02-19T07:04:38;-11.97;65.19
72762;SHT30;60886;55.034;73.150;2023-02-19T07:07:51;-11.81;65.30
72762;SHT30;60886;55.034;73.150;2023-02-19T07:10:58;-11.70;65.17
72762;SHT30;60886;55.034;73.150;2023-02-19T07:14:02;-11.61;65.06
72762;SHT30;60886;55.034;73.150;2023-02-19T07:17:04;-11.63;65.05
72762;SHT30;60886;55.034;73.150;2023-02-19T07:20:11;-11.50;65.36
72762;SHT30;60886;55.034;73.150;2023-02-19T07:23:18;-11.46;64.35
72762;SHT30;60886;55.034;73.150;2023-02-19T07:26:20;-11.27;64.60
72762;SHT30;60886;55.034;73.150;2023-02-19T07:29:21;-11.18;64.36
72762;SHT30;60886;55.034;73.150;2023-02-19T07:32:27;-11.16;64.56
72762;SHT30;60886;55.034;73.150;2023-02-19T07:35:45;-11.15;64.87
72762;SHT30;60886;55.034;73.150;2023-02-19T07:38:55;-11.09;64.99
72762;SHT30;60886;55.034;73.150;2023-02-19T07:41:57;-11.05;64.76
72762;SHT30;60886;55.034;73.150;2023-02-19T07:45:11;-11.04;64.39
72762;SHT30;60886;55.034;73.150;2023-02-19T07:48:18;-11.14;64.56
72762;SHT30;60886;55.034;73.150;2023-02-19T07:51:19;-11.12;64.58
72762;SHT30;60886;55.034;73.150;2023-02-19T07:54:21;-11.06;65.35
72762;SHT30;60886;55.034;73.150;2023-02-19T07:57:27;-11.12;64.37
72762;SHT30;60886;55.034;73.150;2023-02-19T08:00:29;-11.02;64.82
72762;SHT30;60886;55.034;73.150;2023-02-19T08:03:36;-10.95;64.57
72762;SHT30;60886;55.034;73.150;2023-02-19T08:06:37;-10.91;65.30
72762;SHT30;60886;55.034;73.150;2023-02-19T08:09:38;-10.82;64.95
72762;SHT30;60886;55.034;73.150;2023-02-19T08:12:41;-10.67;64.62
72762;SHT30;60886;55.034;73.150;2023-02-19T08:19:08;-10.68;63.39
72762;SHT30;60886;55.034;73.150;2023-02-19T08:22:09;-10.75;63.35
72762;SHT30;60886;55.034;73.150;2023-02-19T08:25:12;-10.79;63.96
72762;SHT30;60886;55.034;73.150;2023-02-19T08:28:24;-10.84;64.17
72762;SHT30;60886;55.034;73.150;2023-02-19T08:31:26;-10.79;64.21
72762;SHT30;60886;55.034;73.150;2023-02-19T08:34:27;-10.75;64.53
72762;SHT30;60886;55.034;73.150;2023-02-19T08:37:31;-10.81;64.21
72762;SHT30;60886;55.034;73.150;2023-02-19T08:40:42;-10.79;64.73
72762;SHT30;60886;55.034;73.150;2023-02-19T08:43:44;-10.79;64.99
72762;SHT30;60886;55.034;73.150;2023-02-19T08:46:46;-10.74;64.97
72762;SHT30;60886;55.034;73.150;2023-02-19T08:49:47;-10.69;64.85
72762;SHT30;60886;55.034;73.150;2023-02-19T08:52:51;-10.58;65.12
72762;SHT30;60886;55.034;73.150;2023-02-19T08:55:53;-10.61;64.82
72762;SHT30;60886;55.034;73.150;2023-02-19T08:58:58;-10.64;64.79
72762;SHT30;60886;55.034;73.150;2023-02-19T09:02:05;-10.84;65.76
72762;SHT30;60886;55.034;73.150;2023-02-19T09:05:06;-10.67;65.70
72762;SHT30;60886;55.034;73.150;2023-02-19T09:08:08;-10.55;65.01
72762;SHT30;60886;55.034;73.150;2023-02-19T09:11:10;-10.40;64.72
72762;SHT30;60886;55.034;73.150;2023-02-19T09:14:11;-10.44;64.34
72762;SHT30;60886;55.034;73.150;2023-02-19T09:17:13;-10.53;65.07
72762;SHT30;60886;55.034;73.150;2023-02-19T09:20:25;-10.41;64.71
72762;SHT30;60886;55.034;73.150;2023-02-19T09:23:27;-10.50;65.00
72762;SHT30;60886;55.034;73.150;2023-02-19T09:26:29;-10.51;65.21
72762;SHT30;60886;55.034;73.150;2023-02-19T09:29:30;-10.51;65.32
72762;SHT30;60886;55.034;73.150;2023-02-19T09:32:37;-10.69;65.44
72762;SHT30;60886;55.034;73.150;2023-02-19T09:35:39;-10.69;65.84
72762;SHT30;60886;55.034;73.150;2023-02-19T09:38:41;-10.67;65.95
72762;SHT30;60886;55.034;73.150;2023-02-19T09:42:14;-10.48;66.20
72762;SHT30;60886;55.034;73.150;2023-02-19T09:45:22;-10.30;65.57
72762;SHT30;60886;55.034;73.150;2023-02-19T09:48:31;-10.51;65.66
72762;SHT30;60886;55.034;73.150;2023-02-19T09:51:35;-10.57;65.92
72762;SHT30;60886;55.034;73.150;2023-02-19T09:54:39;-10.57;66.12
72762;SHT30;60886;55.034;73.150;2023-02-19T09:57:41;-10.61;66.21
72762;SHT30;60886;55.034;73.150;2023-02-19T10:00:55;-10.68;66.08
72762;SHT30;60886;55.034;73.150;2023-02-19T10:03:57;-10.67;66.90
72762;SHT30;60886;55.034;73.150;2023-02-19T10:06:59;-10.74;67.04
72762;SHT30;60886;55.034;73.150;2023-02-19T10:13:22;-10.86;67.72
72762;SHT30;60886;55.034;73.150;2023-02-19T10:16:35;-10.81;68.05
72762;SHT30;60886;55.034;73.150;2023-02-19T10:19:40;-10.79;68.01
72762;SHT30;60886;55.034;73.150;2023-02-19T10:22:46;-10.85;67.94
72762;SHT30;60886;55.034;73.150;2023-02-19T10:25:58;-10.81;68.00
72762;SHT30;60886;55.034;73.150;2023-02-19T10:29:03;-10.91;67.81
72762;SHT30;60886;55.034;73.150;2023-02-19T10:32:24;-10.98;68.04
72762;SHT30;60886;55.034;73.150;2023-02-19T10:35:26;-10.88;68.09
72762;SHT30;60886;55.034;73.150;2023-02-19T10:38:31;-10.95;67.80
72762;SHT30;60886;55.034;73.150;2023-02-19T10:41:33;-11.04;68.25
72762;SHT30;60886;55.034;73.150;2023-02-19T10:44:46;-11.02;68.77
72762;SHT30;60886;55.034;73.150;2023-02-19T10:47:49;-11.02;68.80
72762;SHT30;60886;55.034;73.150;2023-02-19T10:50:52;-10.95;68.59
72762;SHT30;60886;55.034;73.150;2023-02-19T11:00:40;-11.29;69.18
72762;SHT30;60886;55.034;73.150;2023-02-19T11:03:42;-11.33;69.48
72762;SHT30;60886;55.034;73.150;2023-02-19T11:06:44;-11.36;69.66
72762;SHT30;60886;55.034;73.150;2023-02-19T11:09:49;-11.47;70.07
72762;SHT30;60886;55.034;73.150;2023-02-19T11:13:05;-11.50;70.50
72762;SHT30;60886;55.034;73.150;2023-02-19T11:16:08;-11.46;70.30
72762;SHT30;60886;55.034;73.150;2023-02-19T11:19:28;-11.50;70.61
72762;SHT30;60886;55.034;73.150;2023-02-19T11:22:42;-11.57;70.63
72762;SHT30;60886;55.034;73.150;2023-02-19T11:25:58;-11.57;71.15
72762;SHT30;60886;55.034;73.150;2023-02-19T11:29:12;-11.59;71.08
72762;SHT30;60886;55.034;73.150;2023-02-19T11:32:29;-11.63;71.11
72762;SHT30;60886;55.034;73.150;2023-02-19T11:35:30;-11.73;71.22
72762;SHT30;60886;55.034;73.150;2023-02-19T11:38:32;-11.74;71.61
72762;SHT30;60886;55.034;73.150;2023-02-19T11:51:53;-11.81;71.96
72762;SHT30;60886;55.034;73.150;2023-02-19T11:55:17;-11.97;72.12
72762;SHT30;60886;55.034;73.150;2023-02-19T11:58:34;-11.98;72.34
72762;SHT30;60886;55.034;73.150;2023-02-19T12:05:21;-12.05;72.74
72762;SHT30;60886;55.034;73.150;2023-02-19T12:08:46;-12.05;72.77
72762;SHT30;60886;55.034;73.150;2023-02-19T12:30:31;-12.05;72.78
72762;SHT30;60886;55.034;73.150;2023-02-19T12:41:09;-12.08;73.23
72762;SHT30;60886;55.034;73.150;2023-02-19T12:45:15;-12.08;73.12
72762;SHT30;60886;55.034;73.150;2023-02-19T12:51:43;-12.02;73.19
72762;SHT30;60886;55.034;73.150;2023-02-19T12:54:48;-11.98;73.33
72762;SHT30;60886;55.034;73.150;2023-02-19T12:57:51;-11.98;73.13
72762;SHT30;60886;55.034;73.150;2023-02-19T13:00:54;-12.02;73.26
72762;SHT30;60886;55.034;73.150;2023-02-19T13:07:35;-12.10;73.59
72762;SHT30;60886;55.034;73.150;2023-02-19T13:10:57;-12.08;73.64
72762;SHT30;60886;55.034;73.150;2023-02-19T13:17:54;-12.11;73.80
72762;SHT30;60886;55.034;73.150;2023-02-19T13:21:07;-12.10;74.03
72762;SHT30;60886;55.034;73.150;2023-02-19T13:24:13;-12.05;73.78
72762;SHT30;60886;55.034;73.150;2023-02-19T13:38:00;-12.11;74.21
72762;SHT30;60886;55.034;73.150;2023-02-19T13:41:03;-12.07;74.34
72762;SHT30;60886;55.034;73.150;2023-02-19T13:44:07;-12.02;74.09
72762;SHT30;60886;55.034;73.150;2023-02-19T13:54:29;-11.84;74.08
72762;SHT30;60886;55.034;73.150;2023-02-19T13:57:31;-11.84;73.91
72762;SHT30;60886;55.034;73.150;2023-02-19T14:00:49;-11.78;74.08
72762;SHT30;60886;55.034;73.150;2023-02-19T14:04:07;-11.82;74.31
72762;SHT30;60886;55.034;73.150;2023-02-19T14:10:55;-11.66;74.16
72762;SHT30;60886;55.034;73.150;2023-02-19T14:14:32;-11.60;74.35
72762;SHT30;60886;55.034;73.150;2023-02-19T14:20:44;-11.51;74.16
72762;SHT30;60886;55.034;73.150;2023-02-19T14:23:57;-11.50;74.42
72762;SHT30;60886;55.034;73.150;2023-02-19T14:27:00;-11.49;74.29
72762;SHT30;60886;55.034;73.150;2023-02-19T14:30:03;-11.43;74.32
72762;SHT30;60886;55.034;73.150;2023-02-19T14:33:08;-11.37;74.61
72762;SHT30;60886;55.034;73.150;2023-02-19T14:36:31;-11.30;74.60
72762;SHT30;60886;55.034;73.150;2023-02-19T14:39:43;-11.25;74.65
72762;SHT30;60886;55.034;73.150;2023-02-19T14:42:44;-11.26;74.55
72762;SHT30;60886;55.034;73.150;2023-02-19T14:46:22;-11.25;74.76
72762;SHT30;60886;55.034;73.150;2023-02-19T14:49:29;-11.23;74.88
72762;SHT30;60886;55.034;73.150;2023-02-19T14:52:40;-11.16;75.08
72762;SHT30;60886;55.034;73.150;2023-02-19T14:55:55;-11.11;74.73
72762;SHT30;60886;55.034;73.150;2023-02-19T15:02:28;-11.05;74.80
72762;SHT30;60886;55.034;73.150;2023-02-19T15:05:34;-11.04;74.80
72762;SHT30;60886;55.034;73.150;2023-02-19T15:08:44;-11.04;75.03
72762;SHT30;60886;55.034;73.150;2023-02-19T15:11:57;-10.96;75.09
72762;SHT30;60886;55.034;73.150;2023-02-19T15:15:02;-10.96;75.01
72762;SHT30;60886;55.034;73.150;2023-02-19T15:18:18;-10.98;75.08
72762;SHT30;60886;55.034;73.150;2023-02-19T15:21:25;-10.94;75.39
72762;SHT30;60886;55.034;73.150;2023-02-19T15:24:27;-10.86;75.48
72762;SHT30;60886;55.034;73.150;2023-02-19T15:27:30;-10.89;75.24
72762;SHT30;60886;55.034;73.150;2023-02-19T15:30:43;-10.86;75.42
72762;SHT30;60886;55.034;73.150;2023-02-19T15:33:49;-10.88;75.56
72762;SHT30;60886;55.034;73.150;2023-02-19T15:36:57;-10.88;75.52
72762;SHT30;60886;55.034;73.150;2023-02-19T15:40:14;-10.89;75.46
72762;SHT30;60886;55.034;73.150;2023-02-19T15:43:23;-10.89;75.57
72762;SHT30;60886;55.034;73.150;2023-02-19T15:46:27;-10.92;75.69
72762;SHT30;60886;55.034;73.150;2023-02-19T15:53:25;-11.06;75.72
72762;SHT30;60886;55.034;73.150;2023-02-19T15:56:31;-11.14;76.10
72762;SHT30;60886;55.034;73.150;2023-02-19T15:59:37;-11.16;76.06
72762;SHT30;60886;55.034;73.150;2023-02-19T16:02:40;-11.12;76.17
72762;SHT30;60886;55.034;73.150;2023-02-19T16:06:12;-11.14;76.02
72762;SHT30;60886;55.034;73.150;2023-02-19T16:09:26;-11.16;76.19
72762;SHT30;60886;55.034;73.150;2023-02-19T16:12:33;-11.08;75.87
72762;SHT30;60886;55.034;73.150;2023-02-19T16:15:34;-11.08;75.75
72762;SHT30;60886;55.034;73.150;2023-02-19T16:18:36;-11.11;75.98
72762;SHT30;60886;55.034;73.150;2023-02-19T16:21:37;-11.09;75.92
72762;SHT30;60886;55.034;73.150;2023-02-19T16:24:44;-11.16;75.83
72762;SHT30;60886;55.034;73.150;2023-02-19T16:27:46;-11.18;76.16
72762;SHT30;60886;55.034;73.150;2023-02-19T16:31:02;-11.16;76.24
72762;SHT30;60886;55.034;73.150;2023-02-19T16:34:25;-11.16;76.27
72762;SHT30;60886;55.034;73.150;2023-02-19T16:37:55;-11.12;76.32
72762;SHT30;60886;55.034;73.150;2023-02-19T16:41:09;-11.15;76.35
72762;SHT30;60886;55.034;73.150;2023-02-19T16:47:31;-11.25;76.58
72762;SHT30;60886;55.034;73.150;2023-02-19T16:50:33;-11.29;76.78
72762;SHT30;60886;55.034;73.150;2023-02-19T16:53:34;-11.25;76.66
72762;SHT30;60886;55.034;73.150;2023-02-19T16:56:36;-11.19;76.68
72762;SHT30;60886;55.034;73.150;2023-02-19T16:59:38;-11.25;76.40
72762;SHT30;60886;55.034;73.150;2023-02-19T17:02:39;-11.25;76.51
72762;SHT30;60886;55.034;73.150;2023-02-19T17:05:46;-11.26;76.38
72762;SHT30;60886;55.034;73.150;2023-02-19T17:08:47;-11.27;76.39
72762;SHT30;60886;55.034;73.150;2023-02-19T17:11:50;-11.30;76.73
72762;SHT30;60886;55.034;73.150;2023-02-19T17:14:59;-11.32;76.38
72762;SHT30;60886;55.034;73.150;2023-02-19T17:18:01;-11.29;76.50
72762;SHT30;60886;55.034;73.150;2023-02-19T17:21:22;-11.30;76.08
72762;SHT30;60886;55.034;73.150;2023-02-19T17:24:26;-11.32;76.05
72762;SHT30;60886;55.034;73.150;2023-02-19T17:27:27;-11.33;76.06
72762;SHT30;60886;55.034;73.150;2023-02-19T17:30:30;-11.35;75.92
72762;SHT30;60886;55.034;73.150;2023-02-19T17:33:40;-11.35;76.11
72762;SHT30;60886;55.034;73.150;2023-02-19T17:36:43;-11.29;76.35
72762;SHT30;60886;55.034;73.150;2023-02-19T17:39:45;-11.25;75.93
72762;SHT30;60886;55.034;73.150;2023-02-19T17:42:46;-11.25;75.84
72762;SHT30;60886;55.034;73.150;2023-02-19T17:45:48;-11.26;76.07
72762;SHT30;60886;55.034;73.150;2023-02-19T17:48:50;-11.22;76.01
72762;SHT30;60886;55.034;73.150;2023-02-19T17:51:51;-11.20;76.09
72762;SHT30;60886;55.034;73.150;2023-02-19T17:54:53;-11.22;75.87
72762;SHT30;60886;55.034;73.150;2023-02-19T17:57:55;-11.29;76.13
72762;SHT30;60886;55.034;73.150;2023-02-19T18:01:01;-11.29;76.27
72762;SHT30;60886;55.034;73.150;2023-02-19T18:04:08;-11.20;76.08
72762;SHT30;60886;55.034;73.150;2023-02-19T18:07:13;-11.23;76.00
72762;SHT30;60886;55.034;73.150;2023-02-19T18:10:25;-11.27;75.95
72762;SHT30;60886;55.034;73.150;2023-02-19T18:13:26;-11.32;75.91
72762;SHT30;60886;55.034;73.150;2023-02-19T18:16:27;-11.37;76.12
72762;SHT30;60886;55.034;73.150;2023-02-19T18:19:42;-11.40;76.31
72762;SHT30;60886;55.034;73.150;2023-02-19T18:22:45;-11.42;76.17
72762;SHT30;60886;55.034;73.150;2023-02-19T18:25:46;-11.40;76.34
72762;SHT30;60886;55.034;73.150;2023-02-19T18:28:48;-11.36;76.35
72762;SHT30;60886;55.034;73.150;2023-02-19T18:31:50;-11.39;76.09
72762;SHT30;60886;55.034;73.150;2023-02-19T18:34:54;-11.39;76.12
72762;SHT30;60886;55.034;73.150;2023-02-19T18:37:56;-11.42;76.24
72762;SHT30;60886;55.034;73.150;2023-02-19T18:40:57;-11.40;76.11
72762;SHT30;60886;55.034;73.150;2023-02-19T18:43:58;-11.43;76.03
72762;SHT30;60886;55.034;73.150;2023-02-19T18:47:00;-11.46;75.96
72762;SHT30;60886;55.034;73.150;2023-02-19T18:50:02;-11.53;75.99
72762;SHT30;60886;55.034;73.150;2023-02-19T18:53:04;-11.61;76.05
72762;SHT30;60886;55.034;73.150;2023-02-19T18:56:05;-11.71;76.15
72762;SHT30;60886;55.034;73.150;2023-02-19T18:59:09;-11.70;76.32
72762;SHT30;60886;55.034;73.150;2023-02-19T19:02:16;-11.67;76.27
72762;SHT30;60886;55.034;73.150;2023-02-19T19:05:22;-11.63;75.95
72762;SHT30;60886;55.034;73.150;2023-02-19T19:08:23;-11.69;75.76
72762;SHT30;60886;55.034;73.150;2023-02-19T19:11:25;-11.69;75.87
72762;SHT30;60886;55.034;73.150;2023-02-19T19:14:26;-11.71;75.89
72762;SHT30;60886;55.034;73.150;2023-02-19T19:17:28;-11.74;76.09
72762;SHT30;60886;55.034;73.150;2023-02-19T19:20:39;-11.70;75.96
72762;SHT30;60886;55.034;73.150;2023-02-19T19:23:51;-11.74;76.13
72762;SHT30;60886;55.034;73.150;2023-02-19T19:26:52;-11.66;76.23
72762;SHT30;60886;55.034;73.150;2023-02-19T19:30:00;-11.64;75.94
72762;SHT30;60886;55.034;73.150;2023-02-19T19:33:11;-11.66;75.74
72762;SHT30;60886;55.034;73.150;2023-02-19T19:36:24;-11.63;75.87
72762;SHT30;60886;55.034;73.150;2023-02-19T19:39:36;-11.66;75.68
72762;SHT30;60886;55.034;73.150;2023-02-19T19:42:37;-11.67;75.75
72762;SHT30;60886;55.034;73.150;2023-02-19T19:45:38;-11.69;75.74
72762;SHT30;60886;55.034;73.150;2023-02-19T19:48:40;-11.67;75.70
72762;SHT30;60886;55.034;73.150;2023-02-19T19:51:41;-11.74;75.67
72762;SHT30;60886;55.034;73.150;2023-02-19T19:54:42;-11.73;75.74
72762;SHT30;60886;55.034;73.150;2023-02-19T19:57:44;-11.69;75.68
72762;SHT30;60886;55.034;73.150;2023-02-19T20:00:46;-11.69;75.52
72762;SHT30;60886;55.034;73.150;2023-02-19T20:03:48;-11.73;75.43
72762;SHT30;60886;55.034;73.150;2023-02-19T20:07:01;-11.80;75.40
72762;SHT30;60886;55.034;73.150;2023-02-19T20:10:05;-11.90;75.66
72762;SHT30;60886;55.034;73.150;2023-02-19T20:13:16;-11.88;75.85
72762;SHT30;60886;55.034;73.150;2023-02-19T20:16:27;-11.95;75.72
72762;SHT30;60886;55.034;73.150;2023-02-19T20:19:29;-11.97;75.86
72762;SHT30;60886;55.034;73.150;2023-02-19T20:22:30;-11.97;75.91
72762;SHT30;60886;55.034;73.150;2023-02-19T20:25:41;-11.94;75.94
72762;SHT30;60886;55.034;73.150;2023-02-19T20:28:53;-11.98;75.40
72762;SHT30;60886;55.034;73.150;2023-02-19T20:31:56;-12.10;75.38
72762;SHT30;60886;55.034;73.150;2023-02-19T20:35:03;-12.20;75.65
72762;SHT30;60886;55.034;73.150;2023-02-19T20:38:05;-12.28;75.90
72762;SHT30;60886;55.034;73.150;2023-02-19T20:41:06;-12.35;75.88
72762;SHT30;60886;55.034;73.150;2023-02-19T20:44:07;-12.45;76.04
72762;SHT30;60886;55.034;73.150;2023-02-19T20:47:09;-12.50;76.38
72762;SHT30;60886;55.034;73.150;2023-02-19T20:50:11;-12.55;76.40
72762;SHT30;60886;55.034;73.150;2023-02-19T20:53:22;-12.66;76.40
72762;SHT30;60886;55.034;73.150;2023-02-19T20:56:23;-12.73;76.45
72762;SHT30;60886;55.034;73.150;2023-02-19T20:59:28;-12.80;76.78